Time;durP1;ratioP1;P1;durP2;ratioP2;P2;SDS_P1;SDS_P2;PMS_P1;PMS_P2;Temp;Humidity;BMP_temperature;BMP_pressure;BME280_temperature;BME280_humidity;BME280_pressure;Samples;Min_cycle;Max_cycle;Signal;HPM_P1;HPM_P2
2022/07/31 00:01:50;;;;;;;1999.90;999.90;;;19.30;99.90;;;;;;5012497;28;20029;-76
2022/07/31 00:04:16;;;;;;;1999.90;999.90;;;19.30;99.90;;;;;;5011859;28;20022;-77
2022/07/31 00:06:43;;;;;;;1999.90;999.90;;;19.30;99.90;;;;;;5013180;28;20033;-76
2022/07/31 00:09:09;;;;;;;1999.90;999.90;;;19.30;99.90;;;;;;5013078;28;20072;-74
2022/07/31 00:11:34;;;;;;;1999.90;999.90;;;19.20;99.90;;;;;;5012818;28;20026;-74
2022/07/31 00:14:00;;;;;;;1999.90;999.90;;;19.20;99.90;;;;;;5013130;28;20052;-74
2022/07/31 00:16:25;;;;;;;1999.90;999.90;;;19.20;99.90;;;;;;5012996;28;20441;-76
2022/07/31 00:18:51;;;;;;;1999.90;999.90;;;19.20;99.90;;;;;;5012922;28;20021;-74
2022/07/31 00:21:17;;;;;;;1999.90;999.90;;;19.10;99.90;;;;;;5003263;28;20028;-76
2022/07/31 00:23:43;;;;;;;1999.90;999.90;;;19.20;99.90;;;;;;4993130;28;20548;-75
2022/07/31 00:26:09;;;;;;;1999.90;999.90;;;19.10;99.90;;;;;;4994316;28;20393;-74
2022/07/31 00:28:35;;;;;;;1999.90;999.90;;;19.10;99.90;;;;;;4997100;28;20057;-74
2022/07/31 00:31:01;;;;;;;1999.90;999.90;;;19.10;99.90;;;;;;4997437;28;20105;-76
2022/07/31 00:33:27;;;;;;;1999.90;999.90;;;19.10;99.90;;;;;;4997004;28;20102;-74
2022/07/31 00:35:52;;;;;;;1999.90;999.90;;;19.00;99.90;;;;;;4997153;28;20030;-76
2022/07/31 00:38:18;;;;;;;1999.90;999.90;;;19.00;99.90;;;;;;5004722;28;20477;-74
2022/07/31 00:40:47;;;;;;;1999.90;999.90;;;19.00;99.90;;;;;;5016407;28;20038;-75
2022/07/31 00:43:14;;;;;;;1999.90;999.90;;;19.00;99.90;;;;;;5015185;28;20022;-75
2022/07/31 00:45:40;;;;;;;1999.90;999.90;;;19.00;99.90;;;;;;5016502;28;20520;-76
2022/07/31 00:48:06;;;;;;;1999.90;999.90;;;19.00;99.90;;;;;;5016590;28;20022;-76
2022/07/31 00:50:32;;;;;;;1999.90;999.90;;;18.90;99.90;;;;;;5016313;28;20050;-76
2022/07/31 00:52:57;;;;;;;1999.90;999.90;;;18.90;99.90;;;;;;5016365;28;20053;-74
2022/07/31 00:55:24;;;;;;;1999.90;999.90;;;18.90;99.90;;;;;;5016504;28;20087;-76
2022/07/31 00:57:50;;;;;;;1999.90;999.90;;;18.90;99.90;;;;;;5016113;28;20018;-77
2022/07/31 01:00:15;;;;;;;1999.90;999.90;;;18.90;99.90;;;;;;5016577;28;20030;-76
2022/07/31 01:02:41;;;;;;;1999.90;999.90;;;18.90;99.90;;;;;;5015420;28;20046;-74
2022/07/31 01:05:07;;;;;;;1999.90;999.90;;;18.80;99.90;;;;;;5016279;28;20030;-76
2022/07/31 01:07:33;;;;;;;1999.90;999.90;;;18.80;99.90;;;;;;5016032;28;20509;-76
2022/07/31 01:10:04;;;;;;;1999.90;999.90;;;18.80;99.90;;;;;;5016085;28;20045;-76
2022/07/31 01:12:43;;;;;;;1999.90;999.90;;;18.80;99.90;;;;;;5015626;28;20030;-74
2022/07/31 01:15:12;;;;;;;1999.90;999.90;;;18.70;99.90;;;;;;5014091;28;20021;-75
2022/07/31 01:17:38;;;;;;;1999.90;999.90;;;18.70;99.90;;;;;;5015690;28;20029;-74
2022/07/31 01:20:05;;;;;;;1999.90;999.90;;;18.70;99.90;;;;;;5015767;28;20456;-76
2022/07/31 01:22:37;;;;;;;1999.90;999.90;;;18.70;99.90;;;;;;4996279;28;20022;-74
2022/07/31 01:25:25;;;;;;;1999.90;999.90;;;18.70;99.90;;;;;;4994962;28;20073;-76
2022/07/31 01:28:09;;;;;;;1999.90;999.90;;;18.70;99.90;;;;;;4995935;28;20393;-75
2022/07/31 01:30:41;;;;;;;1999.90;999.90;;;18.60;99.90;;;;;;4995147;28;20404;-76
2022/07/31 01:33:17;;;;;;;1999.90;999.90;;;18.60;99.90;;;;;;4995814;28;20029;-74
2022/07/31 01:35:48;;;;;;;1999.90;999.90;;;18.60;99.90;;;;;;4995893;28;20042;-74
2022/07/31 01:38:19;;;;;;;1999.90;999.90;;;18.60;99.90;;;;;;5002064;28;20100;-76
2022/07/31 01:40:49;;;;;;;1999.90;999.90;;;18.60;99.90;;;;;;5015387;28;20460;-76
2022/07/31 01:43:21;;;;;;;1999.90;999.90;;;18.50;99.90;;;;;;5014219;28;20029;-75
2022/07/31 01:45:50;;;;;;;1999.90;999.90;;;18.50;99.90;;;;;;5015737;28;20494;-74
2022/07/31 01:48:16;;;;;;;1999.90;999.90;;;18.50;99.90;;;;;;5015525;28;20033;-76
2022/07/31 01:50:45;;;;;;;1999.90;999.90;;;18.50;99.90;;;;;;5013776;28;20085;-76
2022/07/31 01:53:18;;;;;;;1999.90;999.90;;;18.50;99.90;;;;;;5015391;28;20124;-74
2022/07/31 01:55:46;;;;;;;1999.90;999.90;;;18.40;99.90;;;;;;5014955;28;20053;-74
2022/07/31 01:58:12;;;;;;;1999.90;999.90;;;18.40;99.90;;;;;;5015496;28;20459;-76
2022/07/31 02:00:38;;;;;;;1999.90;999.90;;;18.40;99.90;;;;;;5015113;28;20470;-76
2022/07/31 02:03:07;;;;;;;1999.90;999.90;;;18.40;99.90;;;;;;5014518;28;20087;-76
2022/07/31 02:05:34;;;;;;;1999.90;999.90;;;18.40;99.90;;;;;;5014980;28;20030;-74
2022/07/31 02:08:02;;;;;;;1999.90;999.90;;;18.40;99.90;;;;;;5013676;28;20022;-74
2022/07/31 02:10:28;;;;;;;1999.90;999.90;;;18.40;99.90;;;;;;5015150;28;20033;-75
2022/07/31 02:12:55;;;;;;;1999.90;999.90;;;18.40;99.90;;;;;;5014795;28;20037;-74
2022/07/31 02:15:22;;;;;;;1999.90;999.90;;;18.40;99.90;;;;;;5014933;28;20374;-76
2022/07/31 02:17:49;;;;;;;1999.90;999.90;;;18.40;99.90;;;;;;5014717;28;20105;-75
2022/07/31 02:20:15;;;;;;;1999.90;999.90;;;18.40;99.90;;;;;;5014329;28;20527;-75
2022/07/31 02:22:41;;;;;;;1999.90;999.90;;;18.40;99.90;;;;;;5014808;28;20018;-74
2022/07/31 02:25:07;;;;;;;1999.90;999.90;;;18.40;99.90;;;;;;5014658;28;20378;-76
2022/07/31 02:27:34;;;;;;;1999.90;999.90;;;18.30;99.90;;;;;;5014473;28;20076;-76
2022/07/31 02:30:02;;;;;;;1999.90;999.90;;;18.30;99.90;;;;;;5014567;28;20112;-76
2022/07/31 02:32:30;;;;;;;1999.90;999.90;;;18.30;99.90;;;;;;5014582;28;20064;-74
2022/07/31 02:34:59;;;;;;;1999.90;999.90;;;18.30;99.90;;;;;;5014250;28;20022;-74
2022/07/31 02:37:26;;;;;;;1999.90;999.90;;;18.30;99.90;;;;;;5013242;28;20018;-74
2022/07/31 02:39:53;;;;;;;1999.90;999.90;;;18.30;99.90;;;;;;5014494;28;20041;-74
2022/07/31 02:42:20;;;;;;;1999.90;999.90;;;18.30;99.90;;;;;;5014150;28;20497;-76
2022/07/31 02:44:47;;;;;;;1999.90;999.90;;;18.30;99.90;;;;;;5014354;28;20084;-76
2022/07/31 02:47:13;;;;;;;1999.90;999.90;;;18.30;99.90;;;;;;5012963;28;20176;-74
2022/07/31 02:49:40;;;;;;;1999.90;999.90;;;18.30;99.90;;;;;;5013994;28;20497;-75
2022/07/31 02:52:07;;;;;;;1999.90;999.90;;;18.30;99.90;;;;;;5014105;28;20121;-74
2022/07/31 02:54:35;;;;;;;1999.90;999.90;;;18.30;99.90;;;;;;5014183;28;20037;-75
2022/07/31 02:57:02;;;;;;;1999.90;999.90;;;18.30;99.90;;;;;;5013631;28;20048;-76
2022/07/31 02:59:27;;;;;;;1999.90;999.90;;;18.30;99.90;;;;;;5014174;28;20029;-74
2022/07/31 03:01:53;;;;;;;1999.90;999.90;;;18.30;99.90;;;;;;5013884;28;20022;-74
2022/07/31 03:04:19;;;;;;;1999.90;999.90;;;18.30;99.90;;;;;;5013739;28;20412;-76
2022/07/31 03:06:47;;;;;;;1999.90;999.90;;;18.30;99.90;;;;;;5014043;28;20544;-74
2022/07/31 03:09:16;;;;;;;1999.90;999.90;;;18.30;99.90;;;;;;5013665;28;20496;-76
2022/07/31 03:11:41;;;;;;;1999.90;999.90;;;18.30;99.90;;;;;;5012214;28;20370;-76
2022/07/31 03:14:11;;;;;;;1999.90;999.90;;;18.30;99.90;;;;;;5013924;28;20037;-75
2022/07/31 03:16:39;;;;;;;1999.90;999.90;;;18.30;99.90;;;;;;5013665;28;20580;-74
2022/07/31 03:19:07;;;;;;;1999.90;999.90;;;18.30;99.90;;;;;;5013555;28;20101;-75
2022/07/31 03:21:34;;;;;;;1999.90;999.90;;;18.30;99.90;;;;;;5013953;28;20366;-76
2022/07/31 03:24:02;;;;;;;1999.90;999.90;;;18.30;99.90;;;;;;5013291;28;20080;-76
2022/07/31 03:26:28;;;;;;;1999.90;999.90;;;18.30;99.90;;;;;;5013442;28;20022;-76
2022/07/31 03:28:53;;;;;;;1999.90;999.90;;;18.30;99.90;;;;;;5013462;28;20033;-74
2022/07/31 03:31:19;;;;;;;1999.90;999.90;;;18.30;99.90;;;;;;5013739;28;20037;-76
2022/07/31 03:33:45;;;;;;;1999.90;999.90;;;18.30;99.90;;;;;;5013261;28;20069;-76
2022/07/31 03:36:11;;;;;;;1999.90;999.90;;;18.20;99.90;;;;;;5013426;28;20022;-76
2022/07/31 03:38:38;;;;;;;1999.90;999.90;;;18.20;99.90;;;;;;5013585;28;20041;-74
2022/07/31 03:41:03;;;;;;;1999.90;999.90;;;18.30;99.90;;;;;;5013125;28;20029;-74
2022/07/31 03:43:31;;;;;;;1999.90;999.90;;;18.30;99.90;;;;;;5013712;28;20171;-76
2022/07/31 03:46:00;;;;;;;1999.90;999.90;;;18.20;99.90;;;;;;5013271;28;20097;-76
2022/07/31 03:48:28;;;;;;;1999.90;999.90;;;18.30;99.90;;;;;;5013315;28;20030;-74
2022/07/31 03:50:54;;;;;;;1999.90;999.90;;;18.30;99.90;;;;;;5013167;28;20053;-76
2022/07/31 03:53:20;;;;;;;1999.90;999.90;;;18.30;99.90;;;;;;5013302;28;20026;-74
2022/07/31 03:55:47;;;;;;;1999.90;999.90;;;18.20;99.90;;;;;;5013000;28;20393;-76
2022/07/31 03:58:14;;;;;;;1999.90;999.90;;;18.20;99.90;;;;;;5013553;28;20144;-76
2022/07/31 04:00:42;;;;;;;1999.90;999.90;;;18.20;99.90;;;;;;5012357;28;20473;-76
2022/07/31 04:03:09;;;;;;;1999.90;999.90;;;18.20;99.90;;;;;;5012686;28;20460;-76
2022/07/31 04:05:35;;;;;;;1999.90;999.90;;;18.20;99.90;;;;;;5013219;28;20041;-74
2022/07/31 04:08:01;;;;;;;1999.90;999.90;;;18.20;99.90;;;;;;5013425;28;20497;-74
2022/07/31 04:10:27;;;;;;;1999.90;999.90;;;18.20;99.90;;;;;;5013119;28;20521;-77
2022/07/31 04:12:52;;;;;;;1999.90;999.90;;;18.30;99.90;;;;;;5012622;28;20029;-76
2022/07/31 04:15:18;;;;;;;1999.90;999.90;;;18.30;99.90;;;;;;5010897;28;20054;-76
2022/07/31 04:17:43;;;;;;;1999.90;999.90;;;18.30;99.90;;;;;;5012919;28;20561;-74
2022/07/31 04:20:10;;;;;;;1999.90;999.90;;;18.30;99.90;;;;;;5013034;28;20105;-74
2022/07/31 04:22:36;;;;;;;1999.90;999.90;;;18.30;99.90;;;;;;5004537;28;20102;-74
2022/07/31 04:25:03;;;;;;;1999.90;999.90;;;18.30;99.90;;;;;;4993658;28;20030;-76
2022/07/31 04:27:29;;;;;;;1999.90;999.90;;;18.30;99.90;;;;;;4993110;28;20023;-74
2022/07/31 04:29:56;;;;;;;1999.90;999.90;;;18.40;99.90;;;;;;4993209;28;20554;-74
2022/07/31 04:32:23;;;;;;;1999.90;999.90;;;18.40;99.90;;;;;;4993432;28;20101;-74
2022/07/31 04:34:49;;;;;;;1999.90;999.90;;;18.30;99.90;;;;;;4993085;28;20023;-74
2022/07/31 04:37:15;;;;;;;1999.90;999.90;;;18.30;99.90;;;;;;4993565;28;20037;-76
2022/07/31 04:39:41;;;;;;;1999.90;999.90;;;18.40;99.90;;;;;;5011041;28;20022;-76
2022/07/31 04:42:07;;;;;;;1999.90;999.90;;;18.40;99.90;;;;;;5012698;28;20045;-76
2022/07/31 04:44:33;;;;;;;1999.90;999.90;;;18.40;99.90;;;;;;5012739;28;20033;-75
2022/07/31 04:47:00;;;;;;;1999.90;999.90;;;18.50;99.90;;;;;;5012898;28;20566;-74
2022/07/31 04:49:26;;;;;;;1999.90;999.90;;;18.50;99.90;;;;;;5012871;28;20040;-77
2022/07/31 04:51:52;;;;;;;1999.90;999.90;;;18.50;99.90;;;;;;5012651;28;20505;-76
2022/07/31 04:54:17;;;;;;;1999.90;999.90;;;18.50;99.90;;;;;;5012709;28;20105;-76
2022/07/31 04:56:43;;;;;;;1999.90;999.90;;;18.50;99.90;;;;;;5012522;28;20061;-75
2022/07/31 04:59:14;;;;;;;1999.90;999.90;;;18.50;99.90;;;;;;5012730;28;20497;-75
2022/07/31 05:01:41;;;;;;;1999.90;999.90;;;18.50;99.90;;;;;;5010975;28;20030;-76
2022/07/31 05:04:08;;;;;;;1999.90;999.90;;;18.50;99.90;;;;;;5011757;28;20030;-76
2022/07/31 05:06:45;;;;;;;1999.90;999.90;;;18.50;99.90;;;;;;5012530;28;20034;-76
2022/07/31 05:09:13;;;;;;;1999.90;999.90;;;18.50;99.90;;;;;;5012806;28;20101;-76
2022/07/31 05:11:39;;;;;;;1999.90;999.90;;;18.50;99.90;;;;;;5012438;28;20032;-74
2022/07/31 05:14:06;;;;;;;1999.90;999.90;;;18.60;99.90;;;;;;5016068;28;20029;-76
2022/07/31 05:16:33;;;;;;;1999.90;999.90;;;18.60;99.90;;;;;;5014743;28;20036;-76
2022/07/31 05:18:59;;;;;;;1999.90;999.90;;;18.60;99.90;;;;;;5014365;28;20022;-74
2022/07/31 05:21:29;;;;;;;1999.90;999.90;;;18.70;99.90;;;;;;5016006;28;20048;-76
2022/07/31 05:23:56;;;;;;;1999.90;999.90;;;18.70;99.90;;;;;;5015648;28;20388;-75
2022/07/31 05:26:22;;;;;;;1999.90;999.90;;;18.70;99.90;;;;;;5015671;28;20431;-76
2022/07/31 05:28:50;;;;;;;1999.90;999.90;;;18.80;99.90;;;;;;5015716;28;20516;-76
2022/07/31 05:31:17;;;;;;;1999.90;999.90;;;18.80;99.90;;;;;;5015875;28;20036;-76
2022/07/31 05:33:43;;;;;;;1999.90;999.90;;;18.90;99.90;;;;;;5015536;28;20029;-76
2022/07/31 05:36:09;;;;;;;1999.90;999.90;;;18.90;99.90;;;;;;5015548;28;20026;-74
2022/07/31 05:38:35;;;;;;;1999.90;999.90;;;18.90;99.90;;;;;;5005896;28;20037;-75
2022/07/31 05:41:00;;;;;;;1999.90;999.90;;;18.80;99.90;;;;;;4995768;28;20556;-76
2022/07/31 05:43:26;;;;;;;1999.90;999.90;;;18.80;99.90;;;;;;4996001;28;20412;-74
2022/07/31 05:45:52;;;;;;;1999.90;999.90;;;18.90;99.90;;;;;;4995918;28;20529;-74
2022/07/31 05:48:18;;;;;;;1999.90;999.90;;;18.90;99.90;;;;;;4995894;28;20085;-74
2022/07/31 05:50:46;;;;;;;1999.90;999.90;;;18.90;99.90;;;;;;4995507;28;20121;-75
2022/07/31 05:53:14;;;;;;;1999.90;999.90;;;19.00;99.90;;;;;;4995893;28;20030;-74
2022/07/31 05:55:41;;;;;;;1999.90;999.90;;;19.00;99.90;;;;;;4995368;28;20023;-76
2022/07/31 05:58:07;;;;;;;1999.90;999.90;;;19.10;99.90;;;;;;4995872;28;20042;-76
2022/07/31 06:00:33;;;;;;;1999.90;999.90;;;19.10;99.90;;;;;;4995474;28;20106;-74
2022/07/31 06:02:59;;;;;;;1999.90;999.90;;;19.10;99.90;;;;;;5005120;28;20029;-74
2022/07/31 06:05:31;;;;;;;1999.90;999.90;;;19.20;99.90;;;;;;5014587;28;20021;-74
2022/07/31 06:08:00;;;;;;;1999.90;999.90;;;19.30;99.90;;;;;;5015440;28;20065;-75
2022/07/31 06:10:27;;;;;;;1999.90;999.90;;;19.40;99.90;;;;;;5014985;28;20037;-74
2022/07/31 06:12:53;;;;;;;1999.90;999.90;;;19.50;99.90;;;;;;5014429;28;20057;-74
2022/07/31 06:15:19;;;;;;;1999.90;999.90;;;19.70;99.90;;;;;;5014967;28;20030;-74
2022/07/31 06:17:45;;;;;;;1999.90;999.90;;;19.70;99.90;;;;;;5014815;28;20029;-74
2022/07/31 06:20:11;;;;;;;1999.90;999.90;;;19.80;99.90;;;;;;5014806;28;20053;-74
2022/07/31 06:22:39;;;;;;;1999.90;999.90;;;19.80;99.90;;;;;;5014551;28;20028;-74
2022/07/31 06:25:07;;;;;;;1999.90;999.90;;;19.90;99.90;;;;;;5013935;28;20101;-74
2022/07/31 06:27:34;;;;;;;1999.90;999.90;;;19.90;99.90;;;;;;5014322;28;20018;-72
2022/07/31 06:30:00;;;;;;;1999.90;999.90;;;20.00;99.90;;;;;;5013281;28;20036;-72
2022/07/31 06:32:25;;;;;;;1999.90;999.90;;;20.10;99.90;;;;;;5014766;28;20100;-74
2022/07/31 06:34:51;;;;;;;1999.90;999.90;;;20.10;99.90;;;;;;5014274;28;20033;-72
2022/07/31 06:37:18;;;;;;;1999.90;999.90;;;20.20;99.90;;;;;;5014692;28;20045;-72
2022/07/31 06:39:44;;;;;;;1999.90;999.90;;;20.30;99.90;;;;;;5014862;28;20028;-74
2022/07/31 06:42:10;;;;;;;1999.90;999.90;;;20.40;99.90;;;;;;5014019;28;20408;-72
2022/07/31 06:44:35;;;;;;;1999.90;999.90;;;20.70;99.90;;;;;;5014579;28;20022;-74
2022/07/31 06:47:01;;;;;;;1999.90;999.90;;;20.90;99.90;;;;;;5014260;28;20037;-72
2022/07/31 06:49:26;;;;;;;1999.90;999.90;;;20.90;99.90;;;;;;5014486;28;20025;-74
2022/07/31 06:51:52;;;;;;;1999.90;999.90;;;21.00;99.90;;;;;;5013993;28;20046;-74
2022/07/31 06:54:18;;;;;;;1999.90;999.90;;;21.00;99.90;;;;;;5014234;28;20026;-72
2022/07/31 06:56:44;;;;;;;1999.90;999.90;;;21.10;99.90;;;;;;5013789;28;20084;-72
2022/07/31 06:59:10;;;;;;;1999.90;999.90;;;21.10;99.90;;;;;;5014158;28;20026;-72
2022/07/31 07:01:35;;;;;;;1999.90;999.90;;;20.90;99.90;;;;;;4995054;28;20080;-74
2022/07/31 07:04:01;;;;;;;1999.90;999.90;;;21.00;99.90;;;;;;5012091;28;20061;-74
2022/07/31 07:06:27;;;;;;;1999.90;999.90;;;20.80;99.90;;;;;;5013361;28;20037;-72
2022/07/31 07:08:53;;;;;;;1999.90;999.90;;;20.60;99.90;;;;;;5014060;28;20025;-72
2022/07/31 07:11:19;;;;;;;1999.90;999.90;;;20.60;99.90;;;;;;5012250;28;20489;-74
2022/07/31 07:13:45;;;;;;;1999.90;999.90;;;20.60;99.90;;;;;;5013352;28;20033;-74
2022/07/31 07:16:11;;;;;;;1999.90;999.90;;;20.70;99.90;;;;;;5011791;28;20037;-74
2022/07/31 07:18:37;;;;;;;1999.90;999.90;;;20.70;99.90;;;;;;5013162;28;20400;-75
2022/07/31 07:21:03;;;;;;;1999.90;999.90;;;20.80;99.90;;;;;;5013861;28;20026;-74
2022/07/31 07:23:29;;;;;;;1999.90;999.90;;;20.80;99.90;;;;;;5013608;28;20401;-72
2022/07/31 07:25:55;;;;;;;1999.90;999.90;;;20.90;99.90;;;;;;5012322;28;20025;-75
2022/07/31 07:28:21;;;;;;;1999.90;999.90;;;21.00;99.90;;;;;;5013337;28;20048;-74
2022/07/31 07:30:47;;;;;;;1999.90;999.90;;;21.00;99.90;;;;;;5013573;28;20053;-74
2022/07/31 07:33:12;;;;;;;1999.90;999.90;;;21.00;99.90;;;;;;5013617;28;20505;-72
2022/07/31 07:35:38;;;;;;;1999.90;999.90;;;21.00;99.90;;;;;;5012635;28;20034;-72
2022/07/31 07:38:04;;;;;;;1999.90;999.90;;;21.20;99.90;;;;;;5013264;28;20028;-74
2022/07/31 07:40:30;;;;;;;1999.90;999.90;;;21.30;99.90;;;;;;5013449;28;20038;-74
2022/07/31 07:42:56;;;;;;;1999.90;999.90;;;21.40;99.90;;;;;;5013369;28;20029;-75
2022/07/31 07:45:21;;;;;;;1999.90;999.90;;;21.50;99.90;;;;;;5013499;28;20026;-72
2022/07/31 07:47:47;;;;;;;1999.90;999.90;;;21.70;99.90;;;;;;5013458;28;20036;-73
2022/07/31 07:50:14;;;;;;;1999.90;999.90;;;22.10;99.90;;;;;;5013234;28;20041;-75
2022/07/31 07:52:40;;;;;;;1999.90;999.90;;;23.10;99.90;;;;;;5012100;28;20021;-75
2022/07/31 07:55:07;;;;;;;1999.90;999.90;;;25.80;99.90;;;;;;5013503;28;20032;-75
2022/07/31 07:57:34;;;;;;;1999.90;999.90;;;27.70;99.90;;;;;;5011774;28;20508;-73
2022/07/31 08:00:03;;;;;;;1999.90;999.90;;;28.90;99.90;;;;;;5007150;28;20030;-73
2022/07/31 08:02:29;;;;;;;1999.90;999.90;;;30.00;99.20;;;;;;4997549;28;20022;-76
2022/07/31 08:04:54;;;;;;;1999.90;999.90;;;31.10;97.60;;;;;;5012955;28;20026;-76
2022/07/31 08:07:28;;;;;;;1999.90;999.90;;;31.10;96.70;;;;;;5012724;28;20022;-73
2022/07/31 08:09:54;;;;;;;1999.90;999.90;;;31.40;96.20;;;;;;5013065;28;20505;-75
2022/07/31 08:12:19;;;;;;;1999.90;999.90;;;31.60;95.40;;;;;;5012749;28;20072;-75
2022/07/31 08:14:45;;;;;;;1999.90;999.90;;;31.60;95.00;;;;;;5013101;28;20033;-73
2022/07/31 08:17:11;;;;;;;1999.90;999.90;;;30.40;96.00;;;;;;5012736;28;20491;-75
2022/07/31 08:19:37;;;;;;;1999.90;999.90;;;30.40;96.90;;;;;;5013114;28;20026;-73
2022/07/31 08:22:03;;;;;;;1999.90;999.90;;;31.30;95.70;;;;;;5012769;28;20022;-76
2022/07/31 08:24:28;;;;;;;1999.90;999.90;;;32.30;94.80;;;;;;5012971;28;20030;-73
2022/07/31 08:29:38;;;;;;;1999.90;999.90;;;31.90;94.70;;;;;;5013143;28;20052;-76
2022/07/31 08:32:04;;;;;;;1999.90;999.90;;;32.90;93.70;;;;;;5012589;28;20501;-73
2022/07/31 08:34:31;;;;;;;1999.90;999.90;;;32.60;93.40;;;;;;5012709;28;20026;-73
2022/07/31 08:36:57;;;;;;;1999.90;999.90;;;31.60;94.50;;;;;;5012741;28;20034;-76
2022/07/31 08:39:23;;;;;;;1999.90;999.90;;;31.00;95.20;;;;;;5013266;28;20469;-76
2022/07/31 08:41:48;;;;;;;1999.90;999.90;;;31.20;95.60;;;;;;5012767;28;20020;-76
2022/07/31 08:44:14;;;;;;;1999.90;999.90;;;32.40;93.90;;;;;;5012885;28;20029;-73
2022/07/31 08:46:40;;;;;;;1999.90;999.90;;;34.00;92.90;;;;;;5013343;28;20476;-76
2022/07/31 08:49:06;;;;;;;1999.90;999.90;;;34.40;92.40;;;;;;5016499;28;20432;-74
2022/07/31 08:51:36;;;;;;;1999.90;999.90;;;34.40;91.80;;;;;;5016434;28;20068;-73
2022/07/31 08:54:07;;;;;;;1999.90;999.90;;;34.90;91.30;;;;;;5016833;28;20022;-74
2022/07/31 08:56:34;;;;;;;1999.90;999.90;;;34.70;91.00;;;;;;5016153;28;20030;-74
2022/07/31 08:59:00;;;;;;;1999.90;999.90;;;33.80;91.70;;;;;;5016438;28;20033;-73
2022/07/31 09:01:26;;;;;;;1999.90;999.90;;;34.00;91.70;;;;;;4998690;28;20084;-77
2022/07/31 09:03:53;;;;;;;1999.90;999.90;;;34.70;91.10;;;;;;5011820;28;20104;-73
2022/07/31 09:06:19;;;;;;;1999.90;999.90;;;34.10;91.10;;;;;;5015543;28;20543;-73
2022/07/31 09:08:45;;;;;;;1999.90;999.90;;;34.00;91.20;;;;;;5016189;28;20109;-76
2022/07/31 09:11:13;;;;;;;1999.90;999.90;;;34.10;91.40;;;;;;5015897;28;20535;-76
2022/07/31 09:13:50;;;;;;;1999.90;999.90;;;34.90;90.70;;;;;;5016078;28;20029;-76
2022/07/31 09:16:16;;;;;;;1999.90;999.90;;;35.70;90.10;;;;;;5014739;28;20500;-77
2022/07/31 09:18:42;;;;;;;1999.90;999.90;;;34.40;90.50;;;;;;5015551;28;20048;-73
2022/07/31 09:21:08;;;;;;;1999.90;999.90;;;33.70;91.80;;;;;;5015933;28;20116;-73
2022/07/31 09:23:44;;;;;;;1999.90;999.90;;;34.10;90.80;;;;;;5015709;28;20539;-76
2022/07/31 09:26:09;;;;;;;1999.90;999.90;;;33.60;91.10;;;;;;5015563;28;20132;-76
2022/07/31 09:28:40;;;;;;;1999.90;999.90;;;33.70;90.50;;;;;;5015817;28;20105;-76
2022/07/31 09:31:07;;;;;;;1999.90;999.90;;;33.40;90.60;;;;;;5015868;28;20503;-73
2022/07/31 09:33:35;;;;;;;1999.90;999.90;;;33.70;90.70;;;;;;5015437;28;20036;-76
2022/07/31 09:36:02;;;;;;;1999.90;999.90;;;33.00;91.20;;;;;;5015701;28;20022;-73
2022/07/31 09:38:35;;;;;;;1999.90;999.90;;;32.30;91.80;;;;;;5015442;28;20034;-76
2022/07/31 09:41:11;;;;;;;1999.90;999.90;;;32.40;91.70;;;;;;5015698;28;20026;-76
2022/07/31 09:43:38;;;;;;;1999.90;999.90;;;32.20;92.10;;;;;;5015508;28;20033;-73
2022/07/31 09:46:05;;;;;;;1999.90;999.90;;;33.60;91.50;;;;;;5015735;28;20412;-73
2022/07/31 09:48:31;;;;;;;1999.90;999.90;;;33.00;91.60;;;;;;5015236;28;20018;-73
2022/07/31 09:51:01;;;;;;;1999.90;999.90;;;32.40;91.70;;;;;;5015417;28;20049;-76
2022/07/31 09:53:37;;;;;;;1999.90;999.90;;;32.10;92.80;;;;;;5015415;28;20025;-76
2022/07/31 09:56:06;;;;;;;1999.90;999.90;;;32.10;92.00;;;;;;5015228;28;20045;-73
2022/07/31 09:58:32;;;;;;;1999.90;999.90;;;33.20;91.20;;;;;;5014519;28;20029;-73
2022/07/31 10:00:57;;;;;;;1999.90;999.90;;;33.60;90.90;;;;;;5001540;28;20041;-76
2022/07/31 10:03:24;;;;;;;1999.90;999.90;;;34.60;89.40;;;;;;5008070;28;20034;-76
2022/07/31 10:05:51;;;;;;;1999.90;999.90;;;33.50;90.60;;;;;;5015203;28;20029;-76
2022/07/31 10:08:18;;;;;;;1999.90;999.90;;;31.90;91.10;;;;;;5014481;28;20034;-76
2022/07/31 10:10:44;;;;;;;1999.90;999.90;;;31.90;92.70;;;;;;5014708;28;20504;-76
2022/07/31 10:13:14;;;;;;;1999.90;999.90;;;32.50;92.30;;;;;;5015000;28;20405;-76
2022/07/31 10:15:40;;;;;;;1999.90;999.90;;;32.10;92.40;;;;;;5014250;28;20101;-76
2022/07/31 10:18:08;;;;;;;1999.90;999.90;;;32.00;92.70;;;;;;5014657;28;20485;-73
2022/07/31 10:20:36;;;;;;;1999.90;999.90;;;31.80;93.00;;;;;;5014726;28;20487;-76
2022/07/31 10:23:08;;;;;;;1999.90;999.90;;;32.10;92.70;;;;;;5014749;28;20050;-73
2022/07/31 10:25:37;;;;;;;1999.90;999.90;;;32.10;92.60;;;;;;5014747;28;20029;-76
2022/07/31 10:28:06;;;;;;;1999.90;999.90;;;32.10;92.90;;;;;;5014659;28;20061;-76
2022/07/31 10:30:31;;;;;;;1999.90;999.90;;;32.10;93.30;;;;;;5014727;28;20396;-76
2022/07/31 10:32:58;;;;;;;1999.90;999.90;;;33.40;92.40;;;;;;5014552;28;20080;-76
2022/07/31 10:35:24;;;;;;;1999.90;999.90;;;33.80;91.10;;;;;;5014294;28;20057;-73
2022/07/31 10:38:17;;;;;;;1999.90;999.90;;;33.60;91.70;;;;;;5014593;28;20084;-74
2022/07/31 10:41:14;;;;;;;1999.90;999.90;;;33.40;91.40;;;;;;5014323;28;20026;-74
2022/07/31 10:43:55;;;;;;;1999.90;999.90;;;32.50;92.40;;;;;;5014637;28;20029;-76
2022/07/31 10:46:28;;;;;;;1999.90;999.90;;;31.90;92.70;;;;;;5014505;28;20426;-76
2022/07/31 10:48:55;;;;;;;1999.90;999.90;;;30.90;93.70;;;;;;5014250;28;20030;-73
2022/07/31 10:51:22;;;;;;;1999.90;999.90;;;30.70;94.20;;;;;;5014173;28;20048;-73
2022/07/31 10:54:04;;;;;;;1999.90;999.90;;;30.60;94.00;;;;;;5014440;28;20447;-73
2022/07/31 10:56:42;;;;;;;1999.90;999.90;;;30.80;94.00;;;;;;5014138;28;20062;-73
2022/07/31 10:59:07;;;;;;;1999.90;999.90;;;30.20;94.80;;;;;;5014255;28;20405;-76
2022/07/31 11:01:48;;;;;;;1999.90;999.90;;;30.20;94.80;;;;;;5013949;28;20022;-73
2022/07/31 11:04:26;;;;;;;1999.90;999.90;;;29.90;94.90;;;;;;5013900;28;20018;-76
2022/07/31 11:06:51;;;;;;;1999.90;999.90;;;29.80;94.90;;;;;;5013782;28;20022;-76
2022/07/31 11:09:25;;;;;;;1999.90;999.90;;;29.60;94.10;;;;;;5013766;28;20148;-76
2022/07/31 11:11:51;;;;;;;1999.90;999.90;;;29.70;94.40;;;;;;5013625;28;20481;-75
2022/07/31 11:14:17;;;;;;;1999.90;999.90;;;30.20;93.60;;;;;;5013856;28;20034;-73
2022/07/31 11:16:52;;;;;;;1999.90;999.90;;;30.00;94.10;;;;;;5013844;28;20030;-73
2022/07/31 11:19:18;;;;;;;1999.90;999.90;;;30.60;92.70;;;;;;5013660;28;20018;-76
2022/07/31 11:21:44;;;;;;;1999.90;999.90;;;30.60;90.90;;;;;;5013569;28;20030;-76
2022/07/31 11:24:19;;;;;;;1999.90;999.90;;;31.50;90.40;;;;;;5013739;28;20022;-73
2022/07/31 11:26:58;;;;;;;1999.90;999.90;;;30.00;92.80;;;;;;5013429;28;20117;-74
2022/07/31 11:29:36;;;;;;;1999.90;999.90;;;30.10;93.60;;;;;;5013648;28;20109;-73
2022/07/31 11:32:04;;;;;;;1999.90;999.90;;;30.80;92.70;;;;;;5013771;28;20026;-76
2022/07/31 11:34:42;;;;;;;1999.90;999.90;;;31.10;89.20;;;;;;5013497;28;20513;-76
2022/07/31 11:37:07;;;;;;;1999.90;999.90;;;31.40;91.70;;;;;;5012144;28;20393;-76
2022/07/31 11:39:33;;;;;;;1999.90;999.90;;;30.60;92.90;;;;;;5013905;28;20029;-73
2022/07/31 11:42:02;;;;;;;1999.90;999.90;;;30.50;93.20;;;;;;5013170;28;20433;-73
2022/07/31 11:44:28;;;;;;;1999.90;999.90;;;30.00;93.50;;;;;;5013563;28;20029;-73
2022/07/31 11:46:53;;;;;;;1999.90;999.90;;;31.00;93.10;;;;;;5012136;28;20026;-76
2022/07/31 11:49:23;;;;;;;1999.90;999.90;;;29.40;94.00;;;;;;5013490;28;20104;-75
2022/07/31 11:51:49;;;;;;;1999.90;999.90;;;28.80;94.30;;;;;;5013175;28;20080;-73
2022/07/31 11:54:23;;;;;;;1999.90;999.90;;;28.00;94.30;;;;;;5013380;28;20033;-73
2022/07/31 11:56:52;;;;;;;1999.90;999.90;;;27.60;95.20;;;;;;5012929;28;20033;-74
2022/07/31 11:59:18;;;;;;;1999.90;999.90;;;27.40;95.20;;;;;;5013211;28;20489;-75
2022/07/31 12:01:44;;;;;;;1999.90;999.90;;;27.30;96.30;;;;;;5012671;28;20018;-76
2022/07/31 12:04:10;;;;;;;1999.90;999.90;;;27.40;96.20;;;;;;5012953;28;20026;-76